Time;durP1;ratioP1;P1;durP2;ratioP2;P2;SDS_P1;SDS_P2;PMS_P1;PMS_P2;Temp;Humidity;BMP_temperature;BMP_pressure;BME280_temperature;BME280_humidity;BME280_pressure;Samples;Min_cycle;Max_cycle;Signal;HPM_P1;HPM_P2
2021/01/23 00:02:43;;;;;;;0.70;0.70;;;;;;;4.21;91.11;93690.75;6937330;28;20207;-70
2021/01/23 00:06:05;;;;;;;0.77;0.77;;;;;;;4.26;91.00;93692.00;6969240;28;20563;-69
2021/01/23 00:09:26;;;;;;;0.67;0.60;;;;;;;4.33;91.24;93690.47;6946410;28;20215;-70
2021/01/23 00:12:46;;;;;;;0.60;0.60;;;;;;;4.27;90.99;93704.19;6965543;28;20348;-69
2021/01/23 00:16:09;;;;;;;0.70;0.70;;;;;;;4.24;91.45;93714.09;6976922;28;20214;-70
2021/01/23 00:19:32;;;;;;;0.60;0.60;;;;;;;4.31;91.95;93720.50;6968684;28;20231;-68
2021/01/23 00:22:53;;;;;;;0.70;0.60;;;;;;;4.25;91.23;93721.88;6954284;28;20210;-70
2021/01/23 00:26:16;;;;;;;0.50;0.50;;;;;;;4.25;91.96;93727.13;6963901;28;20264;-70
2021/01/23 00:29:36;;;;;;;0.50;0.50;;;;;;;4.37;91.86;93727.00;6960854;28;20297;-68
2021/01/23 00:32:56;;;;;;;0.70;0.70;;;;;;;4.31;92.10;93738.88;6970512;28;20230;-69
2021/01/23 00:36:17;;;;;;;0.67;0.67;;;;;;;4.42;92.84;93740.56;6959484;28;20931;-70
2021/01/23 00:39:37;;;;;;;1.43;0.63;;;;;;;4.49;92.77;93745.13;6971062;28;20298;-69
2021/01/23 00:42:58;;;;;;;1.83;0.80;;;;;;;4.48;92.81;93753.97;6967278;28;20222;-70
2021/01/23 00:46:18;;;;;;;0.80;0.80;;;;;;;4.53;92.77;93757.03;6957644;28;20835;-69
2021/01/23 00:49:39;;;;;;;0.80;0.70;;;;;;;4.32;92.09;93758.94;6958290;28;20217;-69
2021/01/23 00:52:59;;;;;;;0.80;0.80;;;;;;;4.44;93.38;93765.72;6968726;28;20261;-70
2021/01/23 00:56:20;;;;;;;0.80;0.80;;;;;;;4.57;93.84;93765.50;6956243;28;20286;-69
2021/01/23 00:59:40;;;;;;;0.77;0.77;;;;;;;4.65;93.82;93769.09;6975402;28;20214;-69
2021/01/23 01:03:03;;;;;;;1.27;0.90;;;;;;;4.53;92.86;93778.06;6939494;28;20211;-67
2021/01/23 01:06:23;;;;;;;1.53;1.10;;;;;;;4.53;93.46;93778.06;6983834;28;20570;-69
2021/01/23 01:09:43;;;;;;;1.00;1.00;;;;;;;4.51;93.27;93787.88;6968396;28;20708;-69
2021/01/23 01:13:04;;;;;;;1.07;1.00;;;;;;;4.55;93.29;93791.91;6976659;28;20223;-69
2021/01/23 01:16:25;;;;;;;1.30;1.20;;;;;;;4.57;93.17;93784.72;6963014;28;20294;-70
2021/01/23 01:19:45;;;;;;;1.67;1.27;;;;;;;4.60;94.38;93789.69;6955017;28;20735;-69
2021/01/23 01:23:06;;;;;;;1.73;1.47;;;;;;;4.55;93.25;93801.59;6980063;28;20296;-69
2021/01/23 01:26:26;;;;;;;1.40;1.30;;;;;;;4.42;93.02;93803.63;6978600;28;20234;-70
2021/01/23 01:29:47;;;;;;;1.67;1.57;;;;;;;4.42;93.22;93806.28;6975587;28;20252;-69
2021/01/23 01:33:09;;;;;;;2.00;1.90;;;;;;;4.49;93.85;93802.13;6979515;28;20215;-69
2021/01/23 01:36:29;;;;;;;1.77;1.60;;;;;;;4.56;94.32;93813.75;6959586;28;20225;-69
2021/01/23 01:39:50;;;;;;;2.10;1.73;;;;;;;4.63;94.26;93818.34;6958333;28;20216;-69
2021/01/23 01:43:10;;;;;;;2.73;2.00;;;;;;;4.64;94.13;93819.16;6972970;28;20564;-69
2021/01/23 01:46:30;;;;;;;2.07;1.90;;;;;;;4.64;93.97;93817.38;6951838;28;20215;-69
2021/01/23 01:49:57;;;;;;;2.77;2.20;;;;;;;4.67;94.13;93822.38;6953370;28;20245;-69
2021/01/23 01:53:21;;;;;;;2.43;2.23;;;;;;;4.66;94.29;93828.59;6965779;28;20218;-69
2021/01/23 01:56:41;;;;;;;2.93;2.37;;;;;;;4.69;94.80;93817.78;6974216;28;20210;-69
2021/01/23 02:00:06;;;;;;;4.60;2.40;;;;;;;4.53;93.56;93833.25;6964790;28;20307;-69
2021/01/23 02:03:33;;;;;;;4.17;2.20;;;;;;;4.61;94.27;93827.34;6990737;28;20217;-69
2021/01/23 02:06:56;;;;;;;4.57;2.50;;;;;;;4.63;94.37;93826.22;6969728;28;20221;-69
2021/01/23 02:10:25;;;;;;;3.93;2.13;;;;;;;4.67;94.40;93832.06;6964388;28;20242;-69
2021/01/23 02:13:54;;;;;;;3.13;2.20;;;;;;;4.72;94.57;93832.47;6954399;28;20210;-69
2021/01/23 02:17:15;;;;;;;3.50;2.10;;;;;;;4.76;95.10;93828.59;6945810;28;20218;-68
2021/01/23 02:21:20;;;;;;;3.33;1.90;;;;;;;4.75;94.40;93837.47;6965115;28;20293;-69
2021/01/23 02:24:41;;;;;;;2.37;2.17;;;;;;;4.70;94.49;93840.50;6960346;28;20213;-70
2021/01/23 02:28:07;;;;;;;4.57;2.47;;;;;;;4.72;95.06;93841.22;6978384;28;20220;-69
2021/01/23 02:31:29;;;;;;;3.47;2.20;;;;;;;4.79;95.12;93851.16;6971748;28;20302;-68
2021/01/23 02:34:50;;;;;;;4.33;2.30;;;;;;;4.81;94.96;93850.06;6945936;28;20223;-69
2021/01/23 02:38:11;;;;;;;2.60;2.10;;;;;;;4.75;94.93;93854.06;6977300;28;20631;-69
2021/01/23 02:41:32;;;;;;;4.17;2.83;;;;;;;4.83;95.85;93856.00;6976381;28;20216;-69
2021/01/23 02:44:52;;;;;;;5.03;2.60;;;;;;;4.89;96.00;93850.22;6945559;28;20242;-69
2021/01/23 02:48:13;;;;;;;3.50;2.60;;;;;;;4.96;96.09;93853.13;6961772;28;20223;-68
2021/01/23 02:51:43;;;;;;;5.83;2.90;;;;;;;4.99;96.13;93852.84;6971367;28;20316;-67
2021/01/23 02:55:04;;;;;;;4.13;2.40;;;;;;;5.05;96.13;93858.41;6954721;28;20229;-67
2021/01/23 02:58:30;;;;;;;3.53;2.60;;;;;;;5.10;96.92;93850.94;6976678;28;20683;-67
2021/01/23 03:01:53;;;;;;;6.13;2.80;;;;;;;5.17;96.72;93856.47;6961687;28;20592;-67
2021/01/23 03:05:14;;;;;;;4.47;2.50;;;;;;;5.18;96.65;93858.16;6945126;28;20218;-67
2021/01/23 03:08:43;;;;;;;5.07;2.20;;;;;;;5.16;96.64;93862.72;6961071;28;20663;-69
2021/01/23 03:12:03;;;;;;;3.17;2.80;;;;;;;5.23;97.48;93858.53;6951322;28;20671;-69
2021/01/23 03:15:24;;;;;;;4.00;2.30;;;;;;;5.33;97.96;93872.53;6965506;28;20249;-68
2021/01/23 03:18:44;;;;;;;2.53;2.10;;;;;;;5.41;98.19;93867.44;6955089;28;20233;-70
2021/01/23 03:22:05;;;;;;;2.40;2.10;;;;;;;5.46;98.26;93870.47;6946399;28;20599;-69
2021/01/23 03:25:26;;;;;;;2.10;1.93;;;;;;;5.51;98.08;93867.41;6933715;28;20246;-69
2021/01/23 03:28:47;;;;;;;2.10;1.90;;;;;;;5.50;97.93;93865.75;6952985;28;20218;-69
2021/01/23 03:32:07;;;;;;;1.93;1.67;;;;;;;5.53;97.76;93865.50;6936754;28;20227;-68
2021/01/23 03:35:28;;;;;;;2.60;2.00;;;;;;;5.58;97.15;93860.63;6962642;28;20227;-69
2021/01/23 03:38:51;;;;;;;2.93;2.17;;;;;;;5.61;97.11;93860.34;6966643;28;20218;-69
2021/01/23 03:42:11;;;;;;;2.67;1.97;;;;;;;5.67;97.14;93859.78;6962004;28;20591;-68
2021/01/23 03:45:32;;;;;;;2.60;2.20;;;;;;;5.71;96.89;93858.53;6969660;28;20704;-69
2021/01/23 03:48:52;;;;;;;2.63;2.33;;;;;;;5.78;96.53;93861.44;6965891;28;20250;-68
2021/01/23 03:52:15;;;;;;;3.53;2.10;;;;;;;5.85;96.48;93862.50;6962139;28;20211;-69
2021/01/23 03:55:37;;;;;;;2.53;2.10;;;;;;;5.86;96.03;93861.53;6941493;28;20238;-69
2021/01/23 03:58:57;;;;;;;2.80;1.90;;;;;;;5.86;95.69;93867.66;6973064;28;20877;-69
2021/01/23 04:02:17;;;;;;;1.70;1.60;;;;;;;5.87;95.24;93871.97;6943554;28;20215;-69
2021/01/23 04:05:38;;;;;;;2.20;1.80;;;;;;;5.85;94.84;93865.16;6965686;28;20622;-69
2021/01/23 04:08:59;;;;;;;2.73;2.00;;;;;;;5.81;94.59;93866.41;6956399;28;20263;-68
2021/01/23 04:12:19;;;;;;;4.50;1.90;;;;;;;5.80;94.20;93867.38;6945420;28;20222;-68
2021/01/23 04:15:40;;;;;;;2.93;2.00;;;;;;;5.82;94.04;93862.81;6968898;28;20263;-68
2021/01/23 04:19:00;;;;;;;5.80;2.33;;;;;;;5.83;93.95;93860.03;6973264;28;20595;-69
2021/01/23 04:22:23;;;;;;;2.23;2.03;;;;;;;5.85;93.87;93858.06;6964834;28;20301;-69
2021/01/23 04:25:44;;;;;;;2.43;2.10;;;;;;;5.84;93.46;93851.16;6953477;28;20215;-68
2021/01/23 04:29:04;;;;;;;4.57;1.70;;;;;;;5.82;92.76;93857.53;6968321;28;20227;-68
2021/01/23 04:32:25;;;;;;;1.80;1.70;;;;;;;5.78;92.40;93859.63;6932244;28;20234;-68
2021/01/23 04:35:46;;;;;;;3.80;2.20;;;;;;;5.76;91.94;93860.72;6963398;28;20264;-68
2021/01/23 04:39:06;;;;;;;2.50;2.20;;;;;;;5.77;91.88;93860.59;6954188;28;20723;-68
2021/01/23 04:42:26;;;;;;;3.60;2.37;;;;;;;5.73;91.23;93853.13;6938749;28;20223;-68
2021/01/23 04:45:47;;;;;;;3.17;2.20;;;;;;;5.71;91.16;93848.00;6931816;28;20242;-69
2021/01/23 04:49:07;;;;;;;2.53;2.20;;;;;;;5.65;90.72;93850.34;6952322;28;20229;-69
2021/01/23 04:52:28;;;;;;;2.60;2.10;;;;;;;5.57;89.98;93848.44;6939717;28;20234;-69
2021/01/23 04:55:48;;;;;;;1.83;1.73;;;;;;;5.48;89.50;93847.44;6979416;28;20634;-69
2021/01/23 04:59:08;;;;;;;2.73;2.00;;;;;;;5.48;89.49;93838.75;6958090;28;20234;-68
2021/01/23 05:02:29;;;;;;;3.73;2.00;;;;;;;5.37;88.81;93836.25;6972990;28;20246;-69
2021/01/23 05:06:10;;;;;;;4.23;2.20;;;;;;;5.30;89.10;93838.59;6974432;28;20227;-69
2021/01/23 05:09:30;;;;;;;3.47;2.17;;;;;;;5.24;88.95;93836.53;6965129;28;20220;-69
2021/01/23 05:12:54;;;;;;;2.40;2.20;;;;;;;5.19;88.32;93825.56;6953977;28;20347;-69
2021/01/23 05:16:25;;;;;;;3.67;2.40;;;;;;;5.15;88.46;93818.94;6965247;28;20710;-70
2021/01/23 05:19:45;;;;;;;2.93;2.10;;;;;;;5.15;88.28;93813.69;6955077;28;20597;-69
2021/01/23 05:23:11;;;;;;;3.60;2.47;;;;;;;5.18;88.56;93808.16;6969762;28;20722;-68
2021/01/23 05:26:31;;;;;;;2.20;1.90;;;;;;;5.26;88.99;93803.00;6954719;28;20215;-68
2021/01/23 05:29:59;;;;;;;2.00;1.90;;;;;;;5.28;88.52;93810.78;6968077;28;20238;-69
2021/01/23 05:33:22;;;;;;;2.23;1.93;;;;;;;5.26;88.03;93810.91;6964976;28;20277;-68
2021/01/23 05:36:46;;;;;;;2.70;1.90;;;;;;;5.23;87.66;93805.91;6933228;28;20219;-68
2021/01/23 05:40:07;;;;;;;2.03;1.80;;;;;;;5.19;87.89;93818.53;6942953;28;20321;-69
2021/01/23 05:43:29;;;;;;;2.93;2.00;;;;;;;5.23;87.51;93810.38;6950255;28;20223;-68
2021/01/23 05:46:50;;;;;;;2.40;1.97;;;;;;;5.31;87.66;93811.31;6956302;28;20219;-68
2021/01/23 05:50:10;;;;;;;4.10;2.10;;;;;;;5.40;87.98;93813.09;6972182;28;20223;-69
2021/01/23 05:53:33;;;;;;;3.03;1.70;;;;;;;5.48;87.84;93807.97;6958697;28;20218;-69
2021/01/23 05:56:54;;;;;;;3.13;2.10;;;;;;;5.51;87.24;93812.97;6954599;28;20219;-68
2021/01/23 06:00:15;;;;;;;3.77;1.97;;;;;;;5.53;87.36;93818.09;6967416;28;20241;-68
2021/01/23 06:03:58;;;;;;;3.10;1.70;;;;;;;5.54;86.39;93817.09;6983452;28;20692;-69
2021/01/23 06:07:40;;;;;;;3.37;1.80;;;;;;;5.51;86.52;93812.97;6963583;28;20591;-68
2021/01/23 06:11:00;;;;;;;2.10;1.90;;;;;;;5.56;86.66;93812.53;6944229;28;20234;-68
2021/01/23 06:14:38;;;;;;;2.23;1.90;;;;;;;5.61;86.42;93819.03;6955899;28;20341;-68
2021/01/23 06:18:03;;;;;;;2.23;1.90;;;;;;;5.65;86.60;93821.38;6973212;28;20229;-68
2021/01/23 06:21:43;;;;;;;2.07;1.87;;;;;;;5.73;86.39;93819.72;6943774;28;20223;-68
2021/01/23 06:25:06;;;;;;;2.13;1.90;;;;;;;5.76;86.02;93821.22;6974793;28;20660;-69
2021/01/23 06:28:29;;;;;;;3.30;2.27;;;;;;;5.79;85.84;93811.22;6953333;28;20215;-68
2021/01/23 06:31:50;;;;;;;4.03;3.23;;;;;;;5.79;85.46;93815.66;6970887;28;20215;-68
2021/01/23 06:35:15;;;;;;;2.27;2.07;;;;;;;5.77;85.21;93813.19;6971956;28;20219;-68
2021/01/23 06:38:37;;;;;;;2.47;1.80;;;;;;;5.79;84.89;93819.13;6965355;28;20674;-67
2021/01/23 06:41:57;;;;;;;3.70;2.50;;;;;;;5.82;85.09;93820.66;6940182;28;20229;-68
2021/01/23 06:45:23;;;;;;;2.60;2.40;;;;;;;5.84;84.58;93816.91;6941085;28;20220;-68
2021/01/23 06:49:00;;;;;;;3.70;2.83;;;;;;;5.87;84.46;93811.41;6946968;28;20801;-68
2021/01/23 06:52:20;;;;;;;2.57;2.37;;;;;;;5.85;83.73;93807.19;6954981;28;20215;-70
2021/01/23 06:55:41;;;;;;;2.73;2.47;;;;;;;5.81;83.71;93805.81;6956095;28;20214;-68
2021/01/23 06:59:03;;;;;;;3.23;2.97;;;;;;;5.80;83.29;93791.00;6966999;28;20229;-68
2021/01/23 07:02:25;;;;;;;4.10;2.67;;;;;;;5.80;83.38;93791.00;6968789;28;20603;-69
2021/01/23 07:05:54;;;;;;;4.63;2.70;;;;;;;5.76;82.69;93795.72;6980798;28;20210;-68
2021/01/23 07:09:15;;;;;;;2.90;2.37;;;;;;;5.69;82.49;93797.25;6959932;28;20288;-68
2021/01/23 07:12:39;;;;;;;3.53;2.70;;;;;;;5.63;82.39;93792.59;6956440;28;20743;-68
2021/01/23 07:16:02;;;;;;;4.33;2.33;;;;;;;5.61;82.61;93776.91;6970989;28;20218;-68
2021/01/23 07:19:26;;;;;;;4.27;2.10;;;;;;;5.50;81.84;93774.44;6937444;28;20234;-68
2021/01/23 07:22:47;;;;;;;2.27;1.80;;;;;;;5.41;81.42;93769.19;6924535;28;20221;-67
2021/01/23 07:26:07;;;;;;;2.20;1.90;;;;;;;5.27;80.82;93767.84;6963956;28;20219;-68
2021/01/23 07:29:28;;;;;;;3.77;2.27;;;;;;;5.16;80.43;93766.19;6948272;28;20301;-69
2021/01/23 07:32:48;;;;;;;4.20;2.20;;;;;;;5.15;80.50;93763.69;6968468;28;20284;-68
2021/01/23 07:36:09;;;;;;;2.80;2.37;;;;;;;5.17;80.46;93767.03;6962273;28;20756;-69
2021/01/23 07:39:29;;;;;;;3.83;2.30;;;;;;;5.22;80.14;93769.22;6935864;28;20325;-68
2021/01/23 07:42:51;;;;;;;3.57;2.83;;;;;;;5.23;79.52;93757.75;6968643;28;20302;-67
2021/01/23 07:46:11;;;;;;;5.50;2.60;;;;;;;5.26;79.57;93762.72;6938270;28;20215;-68
2021/01/23 07:49:31;;;;;;;4.90;2.80;;;;;;;5.31;78.86;93756.06;6925437;28;20241;-70
2021/01/23 07:52:52;;;;;;;4.03;3.63;;;;;;;5.41;78.86;93764.75;6936373;28;20219;-69
2021/01/23 07:56:14;;;;;;;3.80;2.30;;;;;;;5.53;79.16;93750.44;6961259;28;20215;-69
2021/01/23 07:59:46;;;;;;;5.07;2.00;;;;;;;5.67;78.70;93740.44;6972312;28;20229;-69
2021/01/23 08:03:09;;;;;;;2.83;2.10;;;;;;;5.71;78.10;93733.91;6964778;28;20221;-69
2021/01/23 08:06:29;;;;;;;2.67;2.30;;;;;;;5.82;77.99;93729.31;6958531;28;20218;-70
2021/01/23 08:10:11;;;;;;;2.90;2.00;;;;;;;6.03;77.88;93726.47;6959972;28;20223;-69
2021/01/23 08:13:33;;;;;;;2.70;1.70;;;;;;;6.22;77.26;93718.47;6960878;28;20234;-68
2021/01/23 08:16:58;;;;;;;3.27;2.00;;;;;;;6.37;76.93;93719.63;6957833;28;20219;-68
2021/01/23 08:20:33;;;;;;;2.43;1.70;;;;;;;6.53;75.98;93711.06;6938182;28;20632;-68
2021/01/23 08:23:54;;;;;;;1.63;1.53;;;;;;;6.68;74.61;93708.75;6928691;28;20261;-69
2021/01/23 08:27:18;;;;;;;2.03;1.50;;;;;;;6.81;73.60;93709.19;6946485;28;20332;-67
2021/01/23 08:30:39;;;;;;;3.40;2.00;;;;;;;6.91;72.58;93699.38;6934104;28;20306;-69
2021/01/23 08:33:59;;;;;;;2.60;2.10;;;;;;;7.08;72.41;93690.63;6947161;28;20215;-67
2021/01/23 08:37:20;;;;;;;3.83;1.93;;;;;;;7.24;71.68;93688.06;6928539;28;20264;-67
2021/01/23 08:40:40;;;;;;;2.77;1.70;;;;;;;7.37;70.16;93692.97;6922671;28;20234;-67
2021/01/23 08:44:01;;;;;;;3.57;1.63;;;;;;;7.45;69.57;93686.91;6949639;28;20285;-68
2021/01/23 08:47:22;;;;;;;2.67;1.80;;;;;;;7.54;68.52;93686.81;6922610;28;20219;-68
2021/01/23 08:50:44;;;;;;;1.80;1.70;;;;;;;7.64;67.21;93673.50;6947195;28;20638;-68
2021/01/23 08:54:05;;;;;;;1.93;1.60;;;;;;;7.70;65.23;93663.09;6930020;28;20230;-68
2021/01/23 08:57:25;;;;;;;2.17;1.47;;;;;;;7.89;63.48;93656.78;6928278;28;20246;-68
2021/01/23 09:00:46;;;;;;;3.77;1.57;;;;;;;8.17;63.08;93649.44;6927374;28;20704;-68
2021/01/23 09:04:06;;;;;;;3.23;1.53;;;;;;;8.48;62.08;93645.25;6925338;28;20219;-68
2021/01/23 09:07:26;;;;;;;3.73;1.80;;;;;;;8.72;61.20;93643.63;6929455;28;20590;-69
2021/01/23 09:10:47;;;;;;;3.67;1.87;;;;;;;8.84;60.04;93635.22;6924292;28;20216;-68
2021/01/23 09:14:07;;;;;;;2.23;1.40;;;;;;;8.85;58.81;93633.41;6926971;28;20223;-69
2021/01/23 09:17:27;;;;;;;2.47;1.60;;;;;;;8.88;58.93;93635.69;6935522;28;20365;-69
2021/01/23 09:20:48;;;;;;;1.93;1.30;;;;;;;8.81;57.99;93630.22;6948029;28;20219;-71
2021/01/23 09:24:09;;;;;;;1.43;1.27;;;;;;;8.84;58.09;93621.16;6924373;28;20310;-69
2021/01/23 09:27:32;;;;;;;3.13;2.23;;;;;;;8.91;57.51;93620.31;6948074;28;20582;-67
2021/01/23 09:30:54;;;;;;;4.70;2.70;;;;;;;9.08;56.95;93617.66;6951550;28;20415;-72
2021/01/23 09:34:15;;;;;;;5.00;2.50;;;;;;;9.26;56.60;93613.81;6923304;28;20589;-71
2021/01/23 09:37:35;;;;;;;5.43;3.93;;;;;;;9.52;56.25;93618.06;6957740;28;20689;-72
2021/01/23 09:40:56;;;;;;;5.37;3.67;;;;;;;9.66;55.62;93612.06;6959217;28;20229;-71
2021/01/23 09:44:16;;;;;;;4.67;3.47;;;;;;;9.78;55.12;93608.06;6954652;28;20687;-71
2021/01/23 09:47:36;;;;;;;7.90;3.00;;;;;;;10.00;54.39;93602.03;6952149;28;20221;-70
2021/01/23 09:50:57;;;;;;;5.07;3.77;;;;;;;10.25;53.43;93603.59;6958148;28;20245;-71
2021/01/23 09:54:17;;;;;;;13.83;11.73;;;;;;;10.42;52.84;93600.81;6961009;28;20237;-70
2021/01/23 09:57:38;;;;;;;12.73;9.60;;;;;;;10.54;52.58;93592.28;6959010;28;20695;-70
2021/01/23 10:00:58;;;;;;;7.30;3.50;;;;;;;10.66;52.39;93587.41;6961382;28;20208;-70
2021/01/23 10:04:21;;;;;;;7.53;5.77;;;;;;;10.89;50.35;93572.28;6953913;28;20300;-72
2021/01/23 10:07:41;;;;;;;7.47;5.10;;;;;;;11.21;50.33;93573.00;6960818;28;20206;-72
2021/01/23 10:11:02;;;;;;;8.93;7.17;;;;;;;11.76;49.70;93565.47;6938382;28;20224;-71
2021/01/23 10:14:22;;;;;;;1.63;1.53;;;;;;;12.29;48.39;93563.44;6956913;28;20982;-70
2021/01/23 10:17:42;;;;;;;2.90;2.33;;;;;;;12.69;47.83;93562.84;6934589;28;20301;-70
2021/01/23 10:21:04;;;;;;;2.57;1.37;;;;;;;13.01;46.93;93558.84;6960877;28;20306;-70
2021/01/23 10:24:24;;;;;;;1.60;1.20;;;;;;;13.35;46.32;93551.97;6954564;28;20225;-71
2021/01/23 10:27:45;;;;;;;1.93;1.53;;;;;;;13.46;45.60;93543.44;6937679;28;20214;-70
2021/01/23 10:31:06;;;;;;;3.80;2.57;;;;;;;13.50;44.43;93540.19;6925506;28;20223;-70
2021/01/23 10:34:26;;;;;;;4.10;2.30;;;;;;;13.73;43.83;93530.06;6949308;28;20212;-70
2021/01/23 10:37:47;;;;;;;4.50;4.10;;;;;;;14.00;42.99;93523.03;6950786;28;20211;-70
2021/01/23 10:41:07;;;;;;;2.43;1.60;;;;;;;14.38;43.06;93511.91;6947311;28;20218;-70
2021/01/23 10:44:27;;;;;;;2.17;1.20;;;;;;;14.46;38.93;93512.53;6929357;28;20219;-70
2021/01/23 10:47:48;;;;;;;4.53;2.90;;;;;;;14.24;40.96;93502.16;6928797;28;20220;-72
2021/01/23 10:51:09;;;;;;;3.57;1.27;;;;;;;14.81;40.21;93505.19;6928914;28;20720;-70
2021/01/23 10:54:29;;;;;;;3.80;1.80;;;;;;;16.02;39.76;93498.50;6945081;28;20220;-71
2021/01/23 10:57:52;;;;;;;2.00;1.80;;;;;;;17.50;37.41;93481.84;6951120;28;20216;-71
2021/01/23 11:01:12;;;;;;;1.53;1.30;;;;;;;19.03;34.46;93477.13;6929063;28;20219;-71
2021/01/23 11:04:33;;;;;;;1.43;1.33;;;;;;;20.16;31.13;93476.84;6924310;28;21842;-70
2021/01/23 11:07:53;;;;;;;1.53;1.10;;;;;;;20.89;30.05;93470.72;6951045;28;20238;-71
2021/01/23 11:11:14;;;;;;;1.23;1.10;;;;;;;21.99;26.81;93462.03;6936413;28;20284;-71
2021/01/23 11:14:35;;;;;;;1.93;1.53;;;;;;;22.79;26.26;93462.25;6934781;28;20206;-71
2021/01/23 11:17:58;;;;;;;1.20;1.10;;;;;;;23.62;25.73;93454.66;6929013;28;20218;-73
2021/01/23 11:21:18;;;;;;;1.30;1.20;;;;;;;23.80;24.70;93449.66;6962631;28;20211;-73
2021/01/23 11:24:42;;;;;;;3.73;1.27;;;;;;;21.31;24.43;93436.16;6971781;28;20214;-76
2021/01/23 11:28:02;;;;;;;3.50;1.20;;;;;;;19.35;27.02;93425.69;6942213;28;20210;-72
2021/01/23 11:31:24;;;;;;;1.13;0.90;;;;;;;17.85;28.12;93408.88;6966301;28;20219;-73
2021/01/23 11:34:44;;;;;;;1.90;1.13;;;;;;;16.55;29.56;93396.41;6969794;28;20214;-72
2021/01/23 11:38:05;;;;;;;3.47;1.00;;;;;;;15.46;30.79;93381.31;6944809;28;20223;-71
2021/01/23 11:41:25;;;;;;;1.00;0.90;;;;;;;14.51;32.52;93381.06;6946562;28;20219;-72
2021/01/23 11:44:46;;;;;;;1.53;1.07;;;;;;;13.56;34.36;93379.41;6945905;28;20677;-75
2021/01/23 11:48:07;;;;;;;1.17;0.90;;;;;;;12.93;35.50;93374.38;6953747;28;20687;-70
2021/01/23 11:51:28;;;;;;;2.00;1.10;;;;;;;12.33;36.17;93367.78;6959146;28;20218;-70
2021/01/23 11:54:48;;;;;;;2.47;1.00;;;;;;;11.96;36.70;93358.25;6969759;28;20241;-71
2021/01/23 11:58:10;;;;;;;1.00;0.90;;;;;;;11.71;37.69;93348.97;6965088;28;20246;-70
2021/01/23 12:01:31;;;;;;;1.63;0.80;;;;;;;11.57;37.43;93340.84;6970420;28;20229;-72
2021/01/23 12:04:51;;;;;;;1.83;0.90;;;;;;;11.39;38.20;93342.28;6945620;28;20211;-71
2021/01/23 12:08:12;;;;;;;1.63;0.90;;;;;;;11.26;38.96;93339.50;6979666;28;20207;-72
2021/01/23 12:11:32;;;;;;;0.90;0.90;;;;;;;11.09;38.88;93325.59;6948258;28;20269;-72
2021/01/23 12:14:53;;;;;;;2.50;1.50;;;;;;;10.93;38.61;93325.78;6964738;28;20224;-72
2021/01/23 12:18:14;;;;;;;1.20;0.70;;;;;;;10.70;38.87;93315.28;6974343;28;20273;-72
2021/01/23 12:21:35;;;;;;;2.07;0.80;;;;;;;10.72;40.35;93308.78;6944247;28;20220;-70
2021/01/23 12:24:57;;;;;;;1.83;0.87;;;;;;;10.77;40.26;93298.44;6951076;28;20207;-70
2021/01/23 12:28:17;;;;;;;1.83;1.00;;;;;;;10.65;40.95;93286.66;6949514;28;20219;-71
2021/01/23 12:31:37;;;;;;;1.30;0.87;;;;;;;10.64;40.38;93286.81;6965504;28;20242;-70
2021/01/23 12:34:58;;;;;;;1.30;0.77;;;;;;;10.45;40.40;93276.78;6965031;28;20214;-70
2021/01/23 12:38:21;;;;;;;0.97;0.67;;;;;;;10.38;40.71;93281.16;6930205;28;20607;-72
2021/01/23 12:41:41;;;;;;;0.73;0.70;;;;;;;10.32;40.95;93282.69;6939770;28;20225;-72
2021/01/23 12:45:02;;;;;;;1.30;0.70;;;;;;;10.48;41.43;93266.59;6955210;28;20308;-72
2021/01/23 12:48:23;;;;;;;0.87;0.80;;;;;;;10.39;40.33;93246.50;6949776;28;20227;-70
2021/01/23 12:51:43;;;;;;;1.03;0.80;;;;;;;9.94;40.50;93250.09;6948464;28;20211;-70
2021/01/23 12:55:08;;;;;;;1.07;0.70;;;;;;;9.66;40.74;93241.91;6974342;28;20240;-70
2021/01/23 12:58:28;;;;;;;1.53;1.20;;;;;;;9.42;41.68;93240.28;6977260;28;20237;-72
2021/01/23 13:01:51;;;;;;;1.63;1.00;;;;;;;9.37;41.43;93245.28;6950569;28;20220;-72
2021/01/23 13:05:13;;;;;;;1.07;0.90;;;;;;;9.44;42.29;93240.94;6970157;28;20219;-70
2021/01/23 13:08:33;;;;;;;1.57;0.70;;;;;;;9.46;42.38;93254.81;6987442;28;20229;-72
2021/01/23 13:11:54;;;;;;;1.87;1.10;;;;;;;9.38;42.99;93275.25;6970009;28;20222;-71
2021/01/23 13:15:14;;;;;;;2.00;0.83;;;;;;;9.09;44.40;93291.03;6946835;28;20224;-70
2021/01/23 13:18:35;;;;;;;0.90;0.73;;;;;;;8.36;49.07;93280.78;6983501;28;20644;-72
2021/01/23 13:21:55;;;;;;;0.70;0.70;;;;;;;7.94;54.08;93281.03;6967631;28;20219;-69
2021/01/23 13:25:16;;;;;;;0.70;0.50;;;;;;;7.85;53.63;93268.81;6976478;28;20581;-70
2021/01/23 13:28:36;;;;;;;1.60;0.83;;;;;;;7.81;51.53;93251.66;6967682;28;20239;-71
2021/01/23 13:31:57;;;;;;;0.87;0.87;;;;;;;7.85;50.97;93243.22;6943525;28;20239;-70
2021/01/23 13:35:17;;;;;;;1.47;0.90;;;;;;;7.89;48.91;93222.59;6978625;28;20298;-69
2021/01/23 13:38:38;;;;;;;0.73;0.73;;;;;;;7.96;49.24;93213.78;6969519;28;20304;-69
2021/01/23 13:41:58;;;;;;;3.20;1.00;;;;;;;7.94;48.67;93212.34;6952576;28;20209;-70
2021/01/23 13:45:18;;;;;;;0.67;0.67;;;;;;;7.93;49.05;93208.88;6955541;28;20705;-70
2021/01/23 13:48:39;;;;;;;0.63;0.50;;;;;;;7.99;48.43;93202.91;6967403;28;20227;-71
2021/01/23 13:51:59;;;;;;;1.60;0.93;;;;;;;8.09;47.65;93200.06;6950237;28;20313;-69
2021/01/23 13:55:20;;;;;;;1.27;0.90;;;;;;;8.24;48.29;93198.34;6955425;28;20265;-70
2021/01/23 13:58:40;;;;;;;1.43;0.90;;;;;;;8.40;47.55;93187.69;6951618;28;20313;-70
2021/01/23 14:02:03;;;;;;;1.90;0.90;;;;;;;8.50;47.25;93174.28;6948192;28;20230;-70
2021/01/23 14:05:23;;;;;;;0.83;0.80;;;;;;;8.47;46.98;93170.16;6958031;28;20212;-70
2021/01/23 14:08:46;;;;;;;1.20;0.90;;;;;;;8.49;46.95;93169.97;6948759;28;20230;-70
2021/01/23 14:12:06;;;;;;;0.80;0.80;;;;;;;8.52;46.30;93164.34;6961534;28;20234;-70
2021/01/23 14:15:27;;;;;;;0.80;0.80;;;;;;;8.55;45.99;93169.28;6952134;28;20225;-70
2021/01/23 14:18:48;;;;;;;1.13;0.97;;;;;;;8.57;46.08;93168.09;6928426;28;20275;-70
2021/01/23 14:22:08;;;;;;;0.60;0.53;;;;;;;8.65;45.51;93163.78;6948525;28;20267;-69
2021/01/23 14:25:29;;;;;;;0.93;0.90;;;;;;;8.70;44.95;93158.78;6927854;28;20220;-71
2021/01/23 14:28:49;;;;;;;0.60;0.60;;;;;;;8.54;44.66;93165.00;6933525;28;20232;-70
2021/01/23 14:32:12;;;;;;;0.80;0.80;;;;;;;8.39;44.26;93159.63;6941458;28;20227;-70
2021/01/23 14:35:32;;;;;;;0.80;0.80;;;;;;;8.50;44.46;93163.69;6936160;28;20683;-69
2021/01/23 14:38:53;;;;;;;0.70;0.70;;;;;;;8.59;44.23;93160.00;6914631;28;20303;-69
2021/01/23 14:42:16;;;;;;;1.07;1.00;;;;;;;8.77;44.25;93154.41;6939380;28;20229;-70
2021/01/23 14:45:37;;;;;;;0.90;0.90;;;;;;;8.76;43.63;93152.75;6933125;28;20303;-69
2021/01/23 14:48:57;;;;;;;0.77;0.77;;;;;;;8.55;44.00;93141.00;6930202;28;20235;-69
2021/01/23 14:52:18;;;;;;;1.90;0.80;;;;;;;8.16;45.41;93145.50;6946225;28;20284;-69
2021/01/23 14:55:39;;;;;;;0.80;0.70;;;;;;;8.09;46.39;93142.72;6946211;28;20720;-69
2021/01/23 14:58:59;;;;;;;1.93;0.93;;;;;;;8.05;46.99;93141.41;6930233;28;20228;-70
2021/01/23 15:02:22;;;;;;;1.47;0.70;;;;;;;8.04;47.18;93133.69;6949045;28;20632;-69
2021/01/23 15:05:42;;;;;;;0.70;0.70;;;;;;;8.02;47.84;93119.78;6925965;28;20221;-70
2021/01/23 15:09:03;;;;;;;1.27;0.90;;;;;;;7.97;48.03;93140.63;6912585;28;20233;-69
2021/01/23 15:12:24;;;;;;;0.63;0.63;;;;;;;8.05;48.65;93133.47;6929179;28;20242;-70
2021/01/23 15:15:45;;;;;;;0.57;0.50;;;;;;;8.08;47.91;93125.22;6928273;28;20216;-70
2021/01/23 15:19:06;;;;;;;1.30;1.00;;;;;;;8.09;48.02;93118.13;6932236;28;20240;-71
2021/01/23 15:22:27;;;;;;;1.07;0.60;;;;;;;7.82;47.92;93124.69;6930864;28;20269;-71
2021/01/23 15:25:48;;;;;;;0.77;0.60;;;;;;;7.86;48.83;93118.03;6912823;28;20223;-75
2021/01/23 15:29:10;;;;;;;1.47;0.60;;;;;;;7.88;48.70;93116.06;6911897;28;20230;-71
2021/01/23 15:32:31;;;;;;;0.63;0.63;;;;;;;7.95;48.26;93097.69;6919790;28;20705;-72
2021/01/23 15:35:52;;;;;;;0.90;0.70;;;;;;;7.89;48.45;93088.66;6913399;28;20224;-71
2021/01/23 15:39:13;;;;;;;1.23;0.60;;;;;;;7.93;48.34;93097.06;6945567;28;20216;-73
2021/01/23 15:42:34;;;;;;;1.93;0.57;;;;;;;7.93;48.61;93100.53;6928495;28;20229;-72
2021/01/23 15:45:54;;;;;;;0.50;0.50;;;;;;;7.98;48.20;93092.91;6908916;28;20235;-70
2021/01/23 15:49:15;;;;;;;0.90;0.90;;;;;;;7.90;47.92;93086.81;6925158;28;20751;-72
2021/01/23 15:52:36;;;;;;;2.53;0.57;;;;;;;7.80;48.33;93079.09;6922234;28;20222;-70
2021/01/23 15:55:57;;;;;;;0.50;0.50;;;;;;;7.80;48.73;93084.38;6945182;28;20212;-70
2021/01/23 15:59:17;;;;;;;0.80;0.60;;;;;;;7.87;48.43;93080.06;6940211;28;20235;-72